createdAt,value
2022-11-24T00:00:53.148Z,9.418333
2022-11-24T00:01:53.194Z,9.418310
2022-11-24T00:02:53.225Z,9.418300
2022-11-24T00:03:53.140Z,9.418211
2022-11-24T00:04:53.139Z,9.418169
2022-11-24T00:05:53.125Z,9.418246
2022-11-24T00:06:53.149Z,9.418120
2022-11-24T00:07:53.157Z,9.418162
2022-11-24T00:08:53.115Z,9.418332
2022-11-24T00:09:53.101Z,9.418287
2022-11-24T00:10:53.100Z,9.418260
2022-11-24T00:11:53.087Z,9.418120
2022-11-24T00:12:53.079Z,9.418169
2022-11-24T00:13:53.069Z,9.418217
2022-11-24T00:14:53.068Z,9.418200
2022-11-24T00:15:53.053Z,9.418204
2022-11-24T00:16:53.094Z,9.418217
2022-11-24T00:17:53.040Z,9.418235
2022-11-24T00:18:53.036Z,9.418145
2022-11-24T00:19:53.016Z,9.418283
2022-11-24T00:20:53.027Z,9.418343
2022-11-24T00:21:53.044Z,9.418332
2022-11-24T00:22:53.026Z,9.418365
2022-11-24T00:23:52.993Z,9.418308
2022-11-24T00:24:53.985Z,9.418425
2022-11-24T00:25:53.994Z,9.418331
2022-11-24T00:26:52.980Z,9.418273
2022-11-24T00:27:53.000Z,9.418255
2022-11-24T00:28:52.972Z,9.418294
2022-11-24T00:29:52.959Z,9.418053
2022-11-24T00:30:53.002Z,9.418390
2022-11-24T00:31:52.959Z,9.418381
2022-11-24T00:32:52.948Z,9.418672
2022-11-24T00:33:52.940Z,9.418576
2022-11-24T00:34:52.940Z,9.418303
2022-11-24T00:35:52.932Z,9.418508
2022-11-24T00:36:52.907Z,9.418386
2022-11-24T00:37:52.907Z,9.418270
2022-11-24T00:38:52.899Z,9.418300
2022-11-24T00:39:53.056Z,9.418274
2022-11-24T00:40:52.887Z,9.418191
2022-11-24T00:41:52.864Z,9.418324
2022-11-24T00:42:52.872Z,9.418136
2022-11-24T00:43:52.863Z,9.418191
2022-11-24T00:44:52.862Z,9.418077
2022-11-24T00:45:53.012Z,9.418222
2022-11-24T00:46:53.013Z,9.418384
2022-11-24T00:47:52.832Z,9.418359
2022-11-24T00:48:52.823Z,9.418346
2022-11-24T00:49:52.839Z,9.418493
2022-11-24T00:50:52.824Z,9.418370
2022-11-24T00:51:52.804Z,9.418437
2022-11-24T00:52:52.805Z,9.418206
2022-11-24T00:53:52.796Z,9.418171
2022-11-24T00:54:52.800Z,9.418390
2022-11-24T00:55:52.784Z,9.418352
2022-11-24T00:56:52.767Z,9.418570
2022-11-24T00:57:52.769Z,9.418394
2022-11-24T00:58:52.771Z,9.418164
2022-11-24T00:59:52.750Z,9.418113
2022-11-24T01:00:52.761Z,9.418391
2022-11-24T01:01:52.782Z,9.418360
2022-11-24T01:02:52.833Z,9.418232
2022-11-24T01:03:52.716Z,9.418318
2022-11-24T01:04:52.719Z,9.418043
2022-11-24T01:05:52.732Z,9.417906
2022-11-24T01:06:52.692Z,9.418408
2022-11-24T01:07:52.719Z,9.418447
2022-11-24T01:08:52.703Z,9.418235
2022-11-24T01:09:52.683Z,9.418099
2022-11-24T01:10:52.676Z,9.418117
2022-11-24T01:11:52.688Z,9.418112
2022-11-24T01:12:52.680Z,9.418177
2022-11-24T01:13:52.663Z,9.418225
2022-11-24T01:14:52.648Z,9.418179
2022-11-24T01:15:52.687Z,9.417983
2022-11-24T01:16:52.647Z,9.418112
2022-11-24T01:17:52.632Z,9.418077
2022-11-24T01:18:52.627Z,9.418093
2022-11-24T01:19:52.623Z,9.418154
2022-11-24T01:20:52.606Z,9.418157
2022-11-24T01:21:52.603Z,9.418229
2022-11-24T01:22:52.613Z,9.418175
2022-11-24T01:23:52.586Z,9.418139
2022-11-24T01:24:52.580Z,9.418220
2022-11-24T01:25:52.575Z,9.418262
2022-11-24T01:26:52.571Z,9.418236
2022-11-24T01:27:52.591Z,9.418108
2022-11-24T01:28:52.564Z,9.417944
2022-11-24T01:29:52.568Z,9.418092
2022-11-24T01:30:52.584Z,9.418137
2022-11-24T01:31:52.542Z,9.418141
2022-11-24T01:32:52.535Z,9.417970
2022-11-24T01:33:52.552Z,9.417976
2022-11-24T01:34:52.539Z,9.418103
2022-11-24T01:35:52.519Z,9.418169
2022-11-24T01:36:52.512Z,9.418141
2022-11-24T01:37:52.507Z,9.418172
2022-11-24T01:38:52.492Z,9.418238
2022-11-24T01:39:52.495Z,9.418290
2022-11-24T01:40:52.481Z,9.418283
2022-11-24T01:41:52.464Z,9.418203
2022-11-24T01:42:53.474Z,9.418211
2022-11-24T01:43:52.478Z,9.418224
2022-11-24T01:44:52.456Z,9.418291
2022-11-24T01:45:52.476Z,9.418270
2022-11-24T01:46:52.464Z,9.418290
2022-11-24T01:47:52.436Z,9.418320
2022-11-24T01:48:52.433Z,9.418294
2022-11-24T01:49:52.424Z,9.418310
2022-11-24T01:50:52.411Z,9.418236
2022-11-24T01:51:52.411Z,9.418221
2022-11-24T01:52:52.407Z,9.418297
2022-11-24T01:53:52.408Z,9.418272
2022-11-24T01:54:52.385Z,9.418288
2022-11-24T01:55:52.376Z,9.418321
2022-11-24T01:56:52.388Z,9.418281
2022-11-24T01:57:52.367Z,9.418293
2022-11-24T01:58:52.388Z,9.418250
2022-11-24T01:59:52.351Z,9.418290
2022-11-24T02:00:52.992Z,9.418324
2022-11-24T02:01:52.366Z,9.418282
2022-11-24T02:02:52.397Z,9.418278
2022-11-24T02:03:52.322Z,9.418338
2022-11-24T02:04:52.331Z,9.418340
2022-11-24T02:05:52.311Z,9.418310
2022-11-24T02:06:52.308Z,9.418288
2022-11-24T02:07:52.346Z,9.418261
2022-11-24T02:08:52.299Z,9.418279
2022-11-24T02:09:52.279Z,9.418296
2022-11-24T02:10:52.296Z,9.418280
2022-11-24T02:11:52.275Z,9.418273
2022-11-24T02:12:52.271Z,9.418372
2022-11-24T02:13:52.254Z,9.418491
2022-11-24T02:14:52.248Z,9.418392
2022-11-24T02:15:52.262Z,9.418379
2022-11-24T02:16:52.234Z,9.418325
2022-11-24T02:17:52.251Z,9.418343
2022-11-24T02:18:52.227Z,9.418296
2022-11-24T02:19:52.221Z,9.418282
2022-11-24T02:20:52.214Z,9.418262
2022-11-24T02:21:52.210Z,9.418293
2022-11-24T02:22:52.217Z,9.418259
2022-11-24T02:23:52.195Z,9.418264
2022-11-24T02:24:52.188Z,9.418237
2022-11-24T02:25:52.180Z,9.418249
2022-11-24T02:26:52.169Z,9.418177
2022-11-24T02:27:54.087Z,9.418205
2022-11-24T02:28:53.171Z,9.418306
2022-11-24T02:29:52.161Z,9.418233
2022-11-24T02:30:52.282Z,9.418193
2022-11-24T02:31:52.144Z,9.418260
2022-11-24T02:32:52.137Z,9.418358
2022-11-24T02:33:52.153Z,9.418277
2022-11-24T02:34:52.110Z,9.418206
2022-11-24T02:35:52.119Z,9.418237
2022-11-24T02:36:52.110Z,9.418262
2022-11-24T02:37:52.102Z,9.418309
2022-11-24T02:38:52.154Z,9.418290
2022-11-24T02:39:52.086Z,9.418270
2022-11-24T02:40:52.093Z,9.418248
2022-11-24T02:41:52.081Z,9.418394
2022-11-24T02:42:52.070Z,9.418296
2022-11-24T02:43:52.058Z,9.418374
2022-11-24T02:44:52.110Z,9.418384
2022-11-24T02:45:52.108Z,9.418277
2022-11-24T02:46:52.038Z,9.418277
2022-11-24T02:47:52.041Z,9.418298
2022-11-24T02:48:52.023Z,9.418346
2022-11-24T02:49:52.026Z,9.418362
2022-11-24T02:50:52.023Z,9.418399
2022-11-24T02:51:52.010Z,9.418405
2022-11-24T02:52:52.011Z,9.418341
2022-11-24T02:53:51.993Z,9.418347
2022-11-24T02:54:51.979Z,9.418351
2022-11-24T02:55:52.042Z,9.418356
2022-11-24T02:56:51.971Z,9.418356
2022-11-24T02:57:51.989Z,9.418344
2022-11-24T02:58:51.964Z,9.418344
2022-11-24T02:59:51.948Z,9.418305
2022-11-24T03:00:51.948Z,9.418309
2022-11-24T03:01:51.991Z,9.418266
2022-11-24T03:02:51.968Z,9.418307
2022-11-24T03:03:51.926Z,9.418273
2022-11-24T03:04:51.923Z,9.418312
2022-11-24T03:05:51.910Z,9.418323
2022-11-24T03:06:51.915Z,9.418270
2022-11-24T03:07:51.930Z,9.418293
2022-11-24T03:08:51.915Z,9.418265
2022-11-24T03:09:51.887Z,9.418302
2022-11-24T03:10:51.882Z,9.418313
2022-11-24T03:11:51.863Z,9.418320
2022-11-24T03:12:51.871Z,9.418330
2022-11-24T03:13:51.874Z,9.418280
2022-11-24T03:14:51.846Z,9.418264
2022-11-24T03:15:51.928Z,9.418251
2022-11-24T03:16:51.839Z,9.418280
2022-11-24T03:17:51.829Z,9.418282
2022-11-24T03:18:51.831Z,9.418277
2022-11-24T03:19:51.839Z,9.418260
2022-11-24T03:20:51.819Z,9.418255
2022-11-24T03:21:51.816Z,9.418276
2022-11-24T03:22:51.803Z,9.418312
2022-11-24T03:23:51.795Z,9.418313
2022-11-24T03:24:51.793Z,9.418356
2022-11-24T03:25:51.786Z,9.418255
2022-11-24T03:26:51.789Z,9.418340
2022-11-24T03:27:51.757Z,9.418303
2022-11-24T03:28:51.768Z,9.418378
2022-11-24T03:29:51.764Z,9.418261
2022-11-24T03:30:51.799Z,9.418342
2022-11-24T03:31:51.748Z,9.418304
2022-11-24T03:32:51.742Z,9.418242
2022-11-24T03:33:51.720Z,9.418337
2022-11-24T03:34:51.711Z,9.418364
2022-11-24T03:35:51.718Z,9.418378
2022-11-24T03:36:51.708Z,9.418361
2022-11-24T03:37:51.723Z,9.418469
2022-11-24T03:38:51.696Z,9.418375
2022-11-24T03:39:51.684Z,9.418343
2022-11-24T03:40:51.679Z,9.418339
2022-11-24T03:41:51.681Z,9.418509
2022-11-24T03:42:51.694Z,9.418427
2022-11-24T03:43:51.657Z,9.418426
2022-11-24T03:44:51.659Z,9.418375
2022-11-24T03:45:51.651Z,9.418292
2022-11-24T03:46:51.643Z,9.418259
2022-11-24T03:47:51.640Z,9.418407
2022-11-24T03:48:51.648Z,9.418324
2022-11-24T03:49:51.620Z,9.418271
2022-11-24T03:50:51.647Z,9.418429
2022-11-24T03:51:51.615Z,9.418426
2022-11-24T03:52:51.600Z,9.418424
2022-11-24T03:53:51.606Z,9.418388
2022-11-24T03:54:51.591Z,9.418393
2022-11-24T03:55:51.608Z,9.418352
2022-11-24T03:56:51.571Z,9.418412
2022-11-24T03:57:51.570Z,9.418424
2022-11-24T03:58:51.604Z,9.418391
2022-11-24T03:59:51.561Z,9.418444
2022-11-24T04:00:51.556Z,9.418383
2022-11-24T04:01:51.593Z,9.418395
2022-11-24T04:02:51.602Z,9.418390
2022-11-24T04:03:51.532Z,9.418324
2022-11-24T04:04:51.516Z,9.418389
2022-11-24T04:05:51.511Z,9.418410
2022-11-24T04:06:51.534Z,9.418395
2022-11-24T04:07:51.536Z,9.418459
2022-11-24T04:08:51.493Z,9.418365
2022-11-24T04:09:51.500Z,9.418365
2022-11-24T04:10:51.494Z,9.418353
2022-11-24T04:11:51.476Z,9.418373
2022-11-24T04:12:51.482Z,9.418419
2022-11-24T04:13:51.480Z,9.418371
2022-11-24T04:14:51.440Z,9.418364
2022-11-24T04:15:51.481Z,9.418377
2022-11-24T04:16:51.440Z,9.418404
2022-11-24T04:17:51.424Z,9.418390
2022-11-24T04:18:51.448Z,9.418406
2022-11-24T04:19:51.419Z,9.418337
2022-11-24T04:20:51.410Z,9.418361
2022-11-24T04:21:51.422Z,9.418373
2022-11-24T04:22:51.507Z,9.418301
2022-11-24T04:23:51.394Z,9.418282
2022-11-24T04:24:51.408Z,9.418307
2022-11-24T04:25:51.396Z,9.418305
2022-11-24T04:26:51.375Z,9.418301
2022-11-24T04:27:51.368Z,9.418317
2022-11-24T04:28:51.368Z,9.418347
2022-11-24T04:29:51.360Z,9.418306
2022-11-24T04:30:51.391Z,9.418329
2022-11-24T04:31:51.394Z,9.418317
2022-11-24T04:32:51.336Z,9.418308
2022-11-24T04:33:51.332Z,9.418351
2022-11-24T04:34:51.341Z,9.418336
2022-11-24T04:35:51.328Z,9.418360
2022-11-24T04:36:51.311Z,9.418347
2022-11-24T04:37:51.307Z,9.418310
2022-11-24T04:39:19.698Z,9.418335
2022-11-24T04:39:52.307Z,9.418355
2022-11-24T04:40:51.287Z,9.418256
2022-11-24T04:41:51.273Z,9.418298
2022-11-24T04:42:51.276Z,9.418383
2022-11-24T04:43:51.267Z,9.418251
2022-11-24T04:44:51.255Z,9.418242
2022-11-24T04:45:51.256Z,9.418233
2022-11-24T04:46:51.423Z,9.418242
2022-11-24T04:47:51.234Z,9.418288
2022-11-24T04:48:51.221Z,9.418252
2022-11-24T04:49:51.230Z,9.418180
2022-11-24T04:50:51.220Z,9.418221
2022-11-24T04:51:51.195Z,9.418199
2022-11-24T04:52:51.203Z,9.418246
2022-11-24T04:53:51.200Z,9.418374
2022-11-24T04:54:51.192Z,9.418284
2022-11-24T04:55:51.202Z,9.418202
2022-11-24T04:56:51.177Z,9.418227
2022-11-24T04:57:51.159Z,9.418261
2022-11-24T04:58:51.163Z,9.418269
2022-11-24T04:59:51.163Z,9.418215
2022-11-24T05:00:51.163Z,9.418257
2022-11-24T05:01:51.255Z,9.418219
2022-11-24T05:02:51.139Z,9.418222
2022-11-24T05:03:51.177Z,9.418153
2022-11-24T05:04:51.119Z,9.418340
2022-11-24T05:05:51.124Z,9.418283
2022-11-24T05:06:51.132Z,9.418291
2022-11-24T05:07:51.128Z,9.418283
2022-11-24T05:08:51.099Z,9.418264
2022-11-24T05:09:59.343Z,9.418303
2022-11-24T05:10:53.086Z,9.418256
2022-11-24T05:11:51.079Z,9.418326
2022-11-24T05:12:51.458Z,9.418213
2022-11-24T05:13:52.056Z,9.418097
2022-11-24T05:14:51.062Z,9.418271
2022-11-24T05:15:51.099Z,9.418337
2022-11-24T05:16:51.027Z,9.418288
2022-11-24T05:17:51.043Z,9.418348
2022-11-24T05:18:51.040Z,9.418387
2022-11-24T05:19:51.030Z,9.418335
2022-11-24T05:20:51.011Z,9.418481
2022-11-24T05:21:51.011Z,9.418350
2022-11-24T05:22:51.008Z,9.418232
2022-11-24T05:23:50.992Z,9.418335
2022-11-24T05:24:51.005Z,9.418358
2022-11-24T05:25:50.982Z,9.418296
2022-11-24T05:26:50.977Z,9.418356
2022-11-24T05:27:50.971Z,9.418363
2022-11-24T05:28:50.954Z,9.418291
2022-11-24T05:29:50.955Z,9.418355
2022-11-24T05:30:50.947Z,9.418429
2022-11-24T05:31:50.968Z,9.418366
2022-11-24T05:32:50.929Z,9.418404
2022-11-24T05:33:50.928Z,9.418385
2022-11-24T05:34:50.952Z,9.418369
2022-11-24T05:35:50.912Z,9.418303
2022-11-24T05:36:50.908Z,9.418282
2022-11-24T05:37:50.903Z,9.418293
2022-11-24T05:38:50.891Z,9.418333
2022-11-24T05:39:50.895Z,9.418384
2022-11-24T05:40:50.875Z,9.418358
2022-11-24T05:41:50.887Z,9.418299
2022-11-24T05:42:50.868Z,9.418261
2022-11-24T05:43:50.846Z,9.418180
2022-11-24T05:44:50.852Z,9.418251
2022-11-24T05:45:50.843Z,9.418265
2022-11-24T05:46:50.892Z,9.418285
2022-11-24T05:47:50.849Z,9.418466
2022-11-24T05:48:50.819Z,9.418544
2022-11-24T05:49:50.824Z,9.418530
2022-11-24T05:50:50.807Z,9.418459
2022-11-24T05:51:50.831Z,9.418291
2022-11-24T05:52:50.799Z,9.418151
2022-11-24T05:53:50.796Z,9.418252
2022-11-24T05:54:50.796Z,9.418342
2022-11-24T05:55:50.783Z,9.418272
2022-11-24T05:56:50.773Z,9.418320
2022-11-24T05:57:50.780Z,9.418222
2022-11-24T05:58:50.761Z,9.418270
2022-11-24T05:59:50.751Z,9.418324
2022-11-24T06:00:50.773Z,9.418315
2022-11-24T06:01:50.851Z,9.418143
2022-11-24T06:02:50.885Z,9.418260
2022-11-24T06:03:50.726Z,9.418322
2022-11-24T06:04:50.718Z,9.418337
2022-11-24T06:05:50.710Z,9.418334
2022-11-24T06:06:50.708Z,9.418314
2022-11-24T06:07:50.757Z,9.418280
2022-11-24T06:08:50.682Z,9.418328
2022-11-24T06:09:50.678Z,9.418329
2022-11-24T06:10:50.671Z,9.418373
2022-11-24T06:11:50.669Z,9.418213
2022-11-24T06:12:50.759Z,9.418299
2022-11-24T06:13:50.710Z,9.418280
2022-11-24T06:14:50.648Z,9.418339
2022-11-24T06:15:50.641Z,9.418173
2022-11-24T06:16:50.677Z,9.418227
2022-11-24T06:17:50.640Z,9.418313
2022-11-24T06:18:50.629Z,9.418182
2022-11-24T06:19:50.623Z,9.418098
2022-11-24T06:21:09.801Z,9.418174
2022-11-24T06:21:52.603Z,9.418229
2022-11-24T06:22:50.594Z,9.418291
2022-11-24T06:23:50.603Z,9.418565
2022-11-24T06:24:50.581Z,9.418095
2022-11-24T06:25:51.680Z,9.418237
2022-11-24T06:26:51.571Z,9.418164
2022-11-24T06:27:50.575Z,9.417985
2022-11-24T06:28:50.554Z,9.418281
2022-11-24T06:29:50.548Z,9.418428
2022-11-24T06:30:50.588Z,9.418365
2022-11-24T06:31:50.596Z,9.418242
2022-11-24T06:32:50.530Z,9.418118
2022-11-24T06:33:50.533Z,9.418291
2022-11-24T06:34:50.525Z,9.418284
2022-11-24T06:35:50.534Z,9.418358
2022-11-24T06:36:50.507Z,9.418273
2022-11-24T06:37:50.502Z,9.418327
2022-11-24T06:38:50.507Z,9.418245
2022-11-24T06:39:50.490Z,9.418391
2022-11-24T06:40:50.518Z,9.418414
2022-11-24T06:41:50.477Z,9.418440
2022-11-24T06:42:50.472Z,9.418588
2022-11-24T06:43:50.468Z,9.418292
2022-11-24T06:44:50.465Z,9.418164
2022-11-24T06:45:50.525Z,9.418256
2022-11-24T06:46:50.462Z,9.418353
2022-11-24T06:47:50.434Z,9.418270
2022-11-24T06:48:50.442Z,9.418355
2022-11-24T06:49:50.431Z,9.418291
2022-11-24T06:50:50.431Z,9.418343
2022-11-24T06:51:50.411Z,9.418235
2022-11-24T06:52:50.397Z,9.418141
2022-11-24T06:53:50.403Z,9.418262
2022-11-24T06:54:50.401Z,9.418711
2022-11-24T06:55:50.381Z,9.418542
2022-11-24T06:56:50.378Z,9.418395
2022-11-24T06:57:50.378Z,9.418388
2022-11-24T06:58:50.383Z,9.418201
2022-11-24T06:59:50.355Z,9.418185
2022-11-24T07:00:50.378Z,9.418135
2022-11-24T07:01:50.347Z,9.418114
2022-11-24T07:02:50.392Z,9.418247
2022-11-24T07:03:50.365Z,9.418145
2022-11-24T07:04:50.327Z,9.418392
2022-11-24T07:05:50.314Z,9.418348
2022-11-24T07:06:50.307Z,9.418266
2022-11-24T07:07:51.058Z,9.418246
2022-11-24T07:08:50.298Z,9.418425
2022-11-24T07:09:50.307Z,9.418150
2022-11-24T07:10:50.288Z,9.418203
2022-11-24T07:11:50.285Z,9.418095
2022-11-24T07:12:50.270Z,9.418031
2022-11-24T07:13:53.850Z,9.417870
2022-11-24T07:14:50.273Z,9.418151
2022-11-24T07:15:50.255Z,9.418260
2022-11-24T07:16:50.303Z,9.418290
2022-11-24T07:17:50.238Z,9.418204
2022-11-24T07:18:50.222Z,9.418258
2022-11-24T07:19:50.231Z,9.418186
2022-11-24T07:20:50.246Z,9.418297
2022-11-24T07:21:50.216Z,9.418263
2022-11-24T07:22:50.200Z,9.418154
2022-11-24T07:23:50.189Z,9.418036
2022-11-24T07:24:50.191Z,9.418122
2022-11-24T07:25:50.199Z,9.418155
2022-11-24T07:26:50.184Z,9.418344
2022-11-24T07:27:50.175Z,9.418269
2022-11-24T07:28:50.162Z,9.418205
2022-11-24T07:29:50.155Z,9.418282
2022-11-24T07:30:50.179Z,9.418340
2022-11-24T07:31:50.273Z,9.418073
2022-11-24T07:32:50.142Z,9.418299
2022-11-24T07:33:50.134Z,9.418338
2022-11-24T07:34:50.119Z,9.418258
2022-11-24T07:35:50.130Z,9.418292
2022-11-24T07:36:50.120Z,9.418333
2022-11-24T07:37:50.904Z,9.418303
2022-11-24T07:38:50.115Z,9.418355
2022-11-24T07:39:50.094Z,9.418240
2022-11-24T07:40:50.091Z,9.418335
2022-11-24T07:41:50.075Z,9.418319
2022-11-24T07:42:50.075Z,9.418324
2022-11-24T07:43:50.092Z,9.418332
2022-11-24T07:44:50.055Z,9.418342
2022-11-24T07:45:50.101Z,9.418341
2022-11-24T07:46:50.056Z,9.418278
2022-11-24T07:47:50.029Z,9.418278
2022-11-24T07:48:50.031Z,9.418230
2022-11-24T07:49:50.046Z,9.418227
2022-11-24T07:50:55.449Z,9.418255
2022-11-24T07:51:52.017Z,9.418276
2022-11-24T07:52:50.018Z,9.418305
2022-11-24T07:53:50.018Z,9.418324
2022-11-24T07:54:50.019Z,9.418287
2022-11-24T07:55:49.992Z,9.418223
2022-11-24T07:56:49.993Z,9.418322
2022-11-24T07:57:49.977Z,9.418344
2022-11-24T07:58:53.012Z,9.418312
2022-11-24T07:59:50.976Z,9.418384
2022-11-24T08:00:49.960Z,9.418365
2022-11-24T08:01:50.011Z,9.418350
2022-11-24T08:02:49.949Z,9.418344
2022-11-24T08:03:49.994Z,9.418295
2022-11-24T08:04:49.928Z,9.418251
2022-11-24T08:06:16.066Z,9.418316
2022-11-24T08:06:51.909Z,9.418334
2022-11-24T08:07:49.940Z,9.418302
2022-11-24T08:08:49.904Z,9.418301
2022-11-24T08:09:49.916Z,9.418317
2022-11-24T08:10:49.909Z,9.418309
2022-11-24T08:11:49.901Z,9.418324
2022-11-24T08:12:49.875Z,9.418396
2022-11-24T08:13:49.885Z,9.418390
2022-11-24T08:14:49.888Z,9.418165
2022-11-24T08:15:49.859Z,9.418280
2022-11-24T08:16:49.892Z,9.418279
2022-11-24T08:17:49.852Z,9.418220
2022-11-24T08:18:49.840Z,9.418326
2022-11-24T08:19:49.864Z,9.418323
2022-11-24T08:20:49.847Z,9.418286
2022-11-24T08:21:49.827Z,9.418331
2022-11-24T08:22:49.823Z,9.418375
2022-11-24T08:23:49.809Z,9.418365
2022-11-24T08:24:49.802Z,9.418409
2022-11-24T08:25:52.935Z,9.418285
2022-11-24T08:26:50.797Z,9.418542
2022-11-24T08:27:49.780Z,9.418584
2022-11-24T08:28:49.781Z,9.418449
2022-11-24T08:29:49.778Z,9.418206
2022-11-24T08:30:49.782Z,9.418335
2022-11-24T08:31:49.794Z,9.418354
2022-11-24T08:32:49.757Z,9.418362
2022-11-24T08:33:49.740Z,9.418327
2022-11-24T08:34:49.738Z,9.418481
2022-11-24T08:35:49.723Z,9.418410
2022-11-24T08:36:49.753Z,9.418397
2022-11-24T08:37:49.720Z,9.418327
2022-11-24T08:38:49.729Z,9.418393
2022-11-24T08:39:49.699Z,9.418357
2022-11-24T08:40:49.693Z,9.418375
2022-11-24T08:41:49.706Z,9.418429
2022-11-24T08:42:49.682Z,9.418469
2022-11-24T08:43:49.696Z,9.418458
2022-11-24T08:44:49.664Z,9.418517
2022-11-24T08:45:49.690Z,9.418472
2022-11-24T08:46:49.654Z,9.418375
2022-11-24T08:47:49.650Z,9.418345
2022-11-24T08:48:49.654Z,9.418475
2022-11-24T08:49:49.664Z,9.418488
2022-11-24T08:50:49.625Z,9.418472
2022-11-24T08:51:49.619Z,9.418451
2022-11-24T08:52:49.604Z,9.418470
2022-11-24T08:53:49.606Z,9.418480
2022-11-24T08:54:49.612Z,9.418418
2022-11-24T08:55:49.589Z,9.418459
2022-11-24T08:56:49.592Z,9.418363
2022-11-24T08:57:50.577Z,9.418403
2022-11-24T08:58:49.630Z,9.418507
2022-11-24T08:59:49.569Z,9.418522
2022-11-24T09:00:49.557Z,9.418532
2022-11-24T09:01:49.664Z,9.418521
2022-11-24T09:02:49.547Z,9.418429
2022-11-24T09:03:51.037Z,9.418332
2022-11-24T09:04:50.543Z,9.418302
2022-11-24T09:05:52.191Z,9.418366
2022-11-24T09:06:50.520Z,9.418377
2022-11-24T09:07:49.585Z,9.418401
2022-11-24T09:08:49.504Z,9.418341
2022-11-24T09:09:49.509Z,9.418224
2022-11-24T09:10:49.508Z,9.418395
2022-11-24T09:11:49.481Z,9.418318
2022-11-24T09:12:49.474Z,9.418214
2022-11-24T09:13:49.495Z,9.418264
2022-11-24T09:14:49.469Z,9.418175
2022-11-24T09:15:49.452Z,9.418163
2022-11-24T09:16:49.480Z,9.418136
2022-11-24T09:17:49.445Z,9.418231
2022-11-24T09:18:49.466Z,9.418361
2022-11-24T09:19:49.440Z,9.418338
2022-11-24T09:20:49.437Z,9.418361
2022-11-24T09:21:49.424Z,9.418427
2022-11-24T09:22:49.412Z,9.418410
2022-11-24T09:23:49.421Z,9.418350
2022-11-24T09:24:49.411Z,9.418246
2022-11-24T09:25:49.397Z,9.418205
2022-11-24T09:26:49.388Z,9.418335
2022-11-24T09:27:49.392Z,9.418305
2022-11-24T09:28:49.380Z,9.418136
2022-11-24T09:29:49.372Z,9.418106
2022-11-24T09:30:49.416Z,9.418112
2022-11-24T09:31:49.349Z,9.417961
2022-11-24T09:32:49.348Z,9.418010
2022-11-24T09:33:49.335Z,9.418046
2022-11-24T09:34:49.353Z,9.418142
2022-11-24T09:35:50.326Z,9.418104
2022-11-24T09:36:49.307Z,9.418233
2022-11-24T09:37:49.305Z,9.418112
2022-11-24T09:38:49.303Z,9.418183
2022-11-24T09:39:49.300Z,9.418377
2022-11-24T09:40:51.614Z,9.418287
2022-11-24T09:41:49.287Z,9.418255
2022-11-24T09:42:53.374Z,9.418197
2022-11-24T09:43:50.273Z,9.418072
2022-11-24T09:44:49.261Z,9.418062
2022-11-24T09:46:05.151Z,9.418065
2022-11-24T09:46:51.298Z,9.418170
2022-11-24T09:47:49.234Z,9.418400
2022-11-24T09:48:49.233Z,9.418165
2022-11-24T09:49:51.493Z,9.418382
2022-11-24T09:50:50.237Z,9.418330
2022-11-24T09:51:49.224Z,9.418567
2022-11-24T09:52:49.216Z,9.418289
2022-11-24T09:53:49.205Z,9.418417
2022-11-24T09:54:49.197Z,9.418159
2022-11-24T09:55:49.190Z,9.418151
2022-11-24T09:56:49.182Z,9.418323
2022-11-24T09:57:49.197Z,9.418365
2022-11-24T09:58:49.172Z,9.418496
2022-11-24T09:59:49.161Z,9.418458
2022-11-24T10:00:49.153Z,9.418490
2022-11-24T10:01:49.175Z,9.418180
2022-11-24T10:02:49.136Z,9.418234
2022-11-24T10:03:49.141Z,9.418170
2022-11-24T10:04:49.172Z,9.418184
2022-11-24T10:05:49.126Z,9.418087
2022-11-24T10:06:49.150Z,9.418126
2022-11-24T10:07:49.111Z,9.418237
2022-11-24T10:08:49.094Z,9.418288
2022-11-24T10:09:49.095Z,9.418174
2022-11-24T10:10:49.073Z,9.418236
2022-11-24T10:11:49.066Z,9.418242
2022-11-24T10:12:49.057Z,9.418182
2022-11-24T10:13:49.070Z,9.418245
2022-11-24T10:14:49.063Z,9.418162
2022-11-24T10:15:49.086Z,9.418034
2022-11-24T10:16:50.799Z,9.418172
2022-11-24T10:17:49.041Z,9.418308
2022-11-24T10:18:49.018Z,9.418278
2022-11-24T10:19:49.011Z,9.418243
2022-11-24T10:20:49.009Z,9.418284
2022-11-24T10:21:48.998Z,9.418406
2022-11-24T10:22:48.985Z,9.418427
2022-11-24T10:23:48.966Z,9.418328
2022-11-24T10:24:48.975Z,9.418343
2022-11-24T10:25:48.990Z,9.418310
2022-11-24T10:26:48.946Z,9.418325
2022-11-24T10:27:48.953Z,9.418344
2022-11-24T10:28:48.949Z,9.418206
2022-11-24T10:29:48.933Z,9.418098
2022-11-24T10:30:48.976Z,9.418002
2022-11-24T10:31:48.923Z,9.418072
2022-11-24T10:32:48.917Z,9.418157
2022-11-24T10:33:48.910Z,9.418222
2022-11-24T10:34:48.902Z,9.418216
2022-11-24T10:35:48.890Z,9.418253
2022-11-24T10:36:48.905Z,9.418290
2022-11-24T10:37:48.885Z,9.418305
2022-11-24T10:38:48.870Z,9.418309
2022-11-24T10:39:48.855Z,9.418249
2022-11-24T10:40:57.089Z,9.418292
2022-11-24T10:41:50.849Z,9.418291
2022-11-24T10:42:48.842Z,9.418335
2022-11-24T10:43:48.850Z,9.418275
2022-11-24T10:44:48.817Z,9.418281
2022-11-24T10:45:49.843Z,9.418320
2022-11-24T10:46:48.914Z,9.418315
2022-11-24T10:47:48.816Z,9.418318
2022-11-24T10:48:48.797Z,9.418337
2022-11-24T10:49:48.785Z,9.418294
2022-11-24T10:50:48.778Z,9.418240
2022-11-24T10:51:48.857Z,9.418301
2022-11-24T10:52:48.784Z,9.418362
2022-11-24T10:53:48.749Z,9.418294
2022-11-24T10:54:48.749Z,9.418201
2022-11-24T10:55:48.747Z,9.418142
2022-11-24T10:56:48.741Z,9.418234
2022-11-24T10:57:48.754Z,9.418239
2022-11-24T10:58:48.737Z,9.418210
2022-11-24T10:59:48.726Z,9.418288
2022-11-24T11:00:48.712Z,9.418251
2022-11-24T11:01:48.883Z,9.418203
2022-11-24T11:02:48.787Z,9.418303
2022-11-24T11:03:48.705Z,9.418345
2022-11-24T11:04:48.688Z,9.418281
2022-11-24T11:05:48.674Z,9.418251
2022-11-24T11:06:48.670Z,9.418325
2022-11-24T11:07:48.713Z,9.418315
2022-11-24T11:08:48.708Z,9.418255
2022-11-24T11:09:48.657Z,9.418292
2022-11-24T11:10:48.655Z,9.418306
2022-11-24T11:11:48.651Z,9.418318
2022-11-24T11:12:48.648Z,9.418224
2022-11-24T11:13:48.646Z,9.418255
2022-11-24T11:14:48.626Z,9.418251
2022-11-24T11:15:48.627Z,9.418326
2022-11-24T11:16:48.622Z,9.418288
2022-11-24T11:17:48.605Z,9.418314
2022-11-24T11:18:48.598Z,9.418366
2022-11-24T11:19:50.016Z,9.418313
2022-11-24T11:20:49.588Z,9.418325
2022-11-24T11:21:48.565Z,9.418341
2022-11-24T11:22:48.565Z,9.418336
2022-11-24T11:23:48.573Z,9.418301
2022-11-24T11:24:48.573Z,9.418245
2022-11-24T11:25:48.538Z,9.418292
2022-11-24T11:26:48.537Z,9.418323
2022-11-24T11:27:48.550Z,9.418304
2022-11-24T11:28:48.539Z,9.418309
2022-11-24T11:34:09.537Z,9.418379
2022-11-24T11:34:50.515Z,9.418351
2022-11-24T11:35:48.485Z,9.418335
2022-11-24T11:36:48.472Z,9.418422
2022-11-24T11:37:48.460Z,9.418451
2022-11-24T11:38:48.470Z,9.418401
2022-11-24T11:39:49.215Z,9.418370
2022-11-24T11:40:49.479Z,9.418283
2022-11-24T11:41:48.438Z,9.418324
2022-11-24T11:43:03.920Z,9.418292
2022-11-24T11:43:50.479Z,9.418314
2022-11-24T11:44:48.414Z,9.418452
2022-11-24T11:45:48.438Z,9.418285
2022-11-24T11:46:48.457Z,9.418344
2022-11-24T11:47:48.407Z,9.418200
2022-11-24T11:48:48.387Z,9.418295